sensor_id;sensor_type;location;lat;lon;timestamp;pressure;altitude;pressure_sealevel;temperature;humidity
54588;BME280;40484;50.198;19.576;2022-12-18T00:00:31;103014.71;;;-1.06;55.08
54588;BME280;40484;50.198;19.576;2022-12-18T00:05:33;103028.26;;;-1.20;55.09
54588;BME280;40484;50.198;19.576;2022-12-18T00:10:35;103028.84;;;-1.13;54.89
54588;BME280;40484;50.198;19.576;2022-12-18T00:15:38;103033.97;;;-1.20;54.82
54588;BME280;40484;50.198;19.576;2022-12-18T00:20:40;103043.82;;;-1.20;54.87
54588;BME280;40484;50.198;19.576;2022-12-18T00:25:41;103047.72;;;-1.07;54.67
54588;BME280;40484;50.198;19.576;2022-12-18T00:30:43;103048.55;;;-1.17;54.76
54588;BME280;40484;50.198;19.576;2022-12-18T00:35:44;103053.49;;;-1.36;55.28
54588;BME280;40484;50.198;19.576;2022-12-18T00:40:46;103057.69;;;-1.17;54.77
54588;BME280;40484;50.198;19.576;2022-12-18T00:45:47;103062.09;;;-1.26;54.79
54588;BME280;40484;50.198;19.576;2022-12-18T00:50:50;103079.80;;;-1.26;54.79
54588;BME280;40484;50.198;19.576;2022-12-18T00:55:51;103081.63;;;-1.36;54.91
54588;BME280;40484;50.198;19.576;2022-12-18T01:01:19;103085.92;;;-1.21;54.70
54588;BME280;40484;50.198;19.576;2022-12-18T01:06:20;103095.66;;;-1.22;54.55
54588;BME280;40484;50.198;19.576;2022-12-18T01:11:22;103097.59;;;-0.91;54.22
54588;BME280;40484;50.198;19.576;2022-12-18T01:16:24;103101.91;;;-0.83;53.81
54588;BME280;40484;50.198;19.576;2022-12-18T01:21:25;103097.57;;;-0.96;53.91
54588;BME280;40484;50.198;19.576;2022-12-18T01:26:27;103105.90;;;-0.92;53.72
54588;BME280;40484;50.198;19.576;2022-12-18T01:31:32;103108.12;;;-1.09;54.03
54588;BME280;40484;50.198;19.576;2022-12-18T01:36:35;103115.86;;;-1.00;54.03
54588;BME280;40484;50.198;19.576;2022-12-18T01:41:37;103109.68;;;-1.15;53.96
54588;BME280;40484;50.198;19.576;2022-12-18T01:47:05;103113.85;;;-1.07;54.04
54588;BME280;40484;50.198;19.576;2022-12-18T01:52:07;103122.59;;;-0.97;53.77
54588;BME280;40484;50.198;19.576;2022-12-18T01:57:08;103135.37;;;-0.79;53.50
54588;BME280;40484;50.198;19.576;2022-12-18T02:02:11;103139.77;;;-0.85;53.57
54588;BME280;40484;50.198;19.576;2022-12-18T02:07:35;103144.08;;;-0.79;53.50
54588;BME280;40484;50.198;19.576;2022-12-18T02:13:07;103154.23;;;-0.75;53.43
54588;BME280;40484;50.198;19.576;2022-12-18T02:18:17;103156.42;;;-0.61;53.09
54588;BME280;40484;50.198;19.576;2022-12-18T02:23:47;103166.95;;;-0.72;53.16
54588;BME280;40484;50.198;19.576;2022-12-18T02:28:55;103177.56;;;-0.60;53.03
54588;BME280;40484;50.198;19.576;2022-12-18T02:33:58;103193.12;;;-0.77;53.01
54588;BME280;40484;50.198;19.576;2022-12-18T02:39:02;103183.27;;;-0.62;52.84
54588;BME280;40484;50.198;19.576;2022-12-18T02:44:08;103189.41;;;-0.72;52.85
54588;BME280;40484;50.198;19.576;2022-12-18T02:49:17;103204.03;;;-0.53;52.69
54588;BME280;40484;50.198;19.576;2022-12-18T02:54:26;103198.37;;;-0.43;52.46
54588;BME280;40484;50.198;19.576;2022-12-18T03:00:03;103212.22;;;-0.38;52.40
54588;BME280;40484;50.198;19.576;2022-12-18T03:05:12;103221.08;;;-0.45;52.43
54588;BME280;40484;50.198;19.576;2022-12-18T03:10:11;103231.08;;;-0.52;52.57
54588;BME280;40484;50.198;19.576;2022-12-18T03:15:18;103229.78;;;-0.48;52.52
54588;BME280;40484;50.198;19.576;2022-12-18T03:20:18;103223.78;;;-0.54;52.53
54588;BME280;40484;50.198;19.576;2022-12-18T03:25:20;103229.43;;;-0.70;52.84
54588;BME280;40484;50.198;19.576;2022-12-18T03:30:22;103237.23;;;-0.44;52.46
54588;BME280;40484;50.198;19.576;2022-12-18T03:35:26;103241.39;;;-0.46;52.53
54588;BME280;40484;50.198;19.576;2022-12-18T03:40:33;103240.53;;;-0.42;52.45
54588;BME280;40484;50.198;19.576;2022-12-18T03:45:40;103242.70;;;-0.25;52.18
54588;BME280;40484;50.198;19.576;2022-12-18T03:51:00;103254.32;;;-0.13;51.91
54588;BME280;40484;50.198;19.576;2022-12-18T03:56:00;103250.63;;;-0.08;51.80
54588;BME280;40484;50.198;19.576;2022-12-18T04:01:03;103262.44;;;-0.29;52.02
54588;BME280;40484;50.198;19.576;2022-12-18T04:06:30;103275.67;;;-0.12;51.85
54588;BME280;40484;50.198;19.576;2022-12-18T04:11:35;103282.10;;;-0.08;51.60
54588;BME280;40484;50.198;19.576;2022-12-18T04:16:37;103287.80;;;-0.14;51.61
54588;BME280;40484;50.198;19.576;2022-12-18T04:21:39;103287.22;;;-0.31;52.02
54588;BME280;40484;50.198;19.576;2022-12-18T04:26:40;103292.73;;;-0.38;52.15
54588;BME280;40484;50.198;19.576;2022-12-18T04:31:42;103297.48;;;-0.40;52.30
54588;BME280;40484;50.198;19.576;2022-12-18T04:36:43;103308.84;;;-0.58;52.68
54588;BME280;40484;50.198;19.576;2022-12-18T04:41:45;103314.55;;;-0.53;52.64
54588;BME280;40484;50.198;19.576;2022-12-18T04:46:46;103321.77;;;-0.72;53.15
54588;BME280;40484;50.198;19.576;2022-12-18T04:51:48;103326.69;;;-0.59;52.98
54588;BME280;40484;50.198;19.576;2022-12-18T04:56:49;103350.26;;;-0.66;53.09
54588;BME280;40484;50.198;19.576;2022-12-18T05:01:51;103349.09;;;-0.46;52.76
54588;BME280;40484;50.198;19.576;2022-12-18T05:06:53;103350.98;;;-0.67;53.12
54588;BME280;40484;50.198;19.576;2022-12-18T05:11:54;103349.67;;;-0.65;53.20
54588;BME280;40484;50.198;19.576;2022-12-18T05:16:56;103356.08;;;-0.72;53.24
54588;BME280;40484;50.198;19.576;2022-12-18T05:21:57;103351.63;;;-0.76;53.48
54588;BME280;40484;50.198;19.576;2022-12-18T05:26:59;103351.41;;;-0.67;53.14
54588;BME280;40484;50.198;19.576;2022-12-18T05:32:00;103364.05;;;-1.00;53.75
54588;BME280;40484;50.198;19.576;2022-12-18T05:37:02;103368.43;;;-0.85;53.72
54588;BME280;40484;50.198;19.576;2022-12-18T05:42:03;103377.21;;;-0.80;53.57
54588;BME280;40484;50.198;19.576;2022-12-18T05:47:05;103384.34;;;-0.78;53.57
54588;BME280;40484;50.198;19.576;2022-12-18T05:52:33;103381.34;;;-0.56;53.22
54588;BME280;40484;50.198;19.576;2022-12-18T05:57:35;103385.59;;;-0.61;53.21
54588;BME280;40484;50.198;19.576;2022-12-18T06:02:36;103391.53;;;-0.73;53.52
54588;BME280;40484;50.198;19.576;2022-12-18T06:07:38;103405.10;;;-0.71;53.49
54588;BME280;40484;50.198;19.576;2022-12-18T06:12:39;103406.25;;;-0.94;53.98
54588;BME280;40484;50.198;19.576;2022-12-18T06:17:41;103420.07;;;-0.78;53.66
54588;BME280;40484;50.198;19.576;2022-12-18T06:22:42;103425.72;;;-0.69;53.54
54588;BME280;40484;50.198;19.576;2022-12-18T06:27:44;103421.80;;;-0.98;54.08
54588;BME280;40484;50.198;19.576;2022-12-18T06:32:48;103427.10;;;-0.74;53.68
54588;BME280;40484;50.198;19.576;2022-12-18T06:37:49;103436.24;;;-0.75;53.68
54588;BME280;40484;50.198;19.576;2022-12-18T06:42:51;103439.36;;;-0.60;53.38
54588;BME280;40484;50.198;19.576;2022-12-18T06:47:53;103449.20;;;-0.62;53.30
54588;BME280;40484;50.198;19.576;2022-12-18T06:52:55;103451.72;;;-0.73;53.19
54588;BME280;40484;50.198;19.576;2022-12-18T06:57:56;103467.17;;;-0.69;53.46
54588;BME280;40484;50.198;19.576;2022-12-18T07:02:58;103473.27;;;-0.58;53.31
54588;BME280;40484;50.198;19.576;2022-12-18T07:07:59;103476.11;;;-0.39;52.88
54588;BME280;40484;50.198;19.576;2022-12-18T07:13:01;103480.48;;;-0.48;52.98
54588;BME280;40484;50.198;19.576;2022-12-18T07:18:03;103487.59;;;-0.53;53.04
54588;BME280;40484;50.198;19.576;2022-12-18T07:23:05;103495.16;;;-0.37;52.65
54588;BME280;40484;50.198;19.576;2022-12-18T07:28:06;103509.81;;;-0.23;52.31
54588;BME280;40484;50.198;19.576;2022-12-18T07:33:08;103514.98;;;-0.41;52.24
54588;BME280;40484;50.198;19.576;2022-12-18T07:38:09;103521.23;;;-0.47;52.41
54588;BME280;40484;50.198;19.576;2022-12-18T07:43:35;103534.59;;;-0.41;52.62
54588;BME280;40484;50.198;19.576;2022-12-18T07:48:37;103536.70;;;-0.45;52.89
54588;BME280;40484;50.198;19.576;2022-12-18T07:53:38;103539.41;;;-0.49;53.13
54588;BME280;40484;50.198;19.576;2022-12-18T07:58:40;103528.84;;;-0.46;52.97
54588;BME280;40484;50.198;19.576;2022-12-18T08:03:42;103535.95;;;-0.51;53.17
54588;BME280;40484;50.198;19.576;2022-12-18T08:08:43;103531.23;;;-0.52;53.06
54588;BME280;40484;50.198;19.576;2022-12-18T08:13:45;103531.45;;;-0.42;53.11
54588;BME280;40484;50.198;19.576;2022-12-18T08:18:46;103536.68;;;-0.29;52.75
54588;BME280;40484;50.198;19.576;2022-12-18T08:23:49;103542.30;;;-0.23;52.28
54588;BME280;40484;50.198;19.576;2022-12-18T08:28:51;103555.77;;;-0.21;52.32
54588;BME280;40484;50.198;19.576;2022-12-18T08:33:53;103552.82;;;-0.10;52.12
54588;BME280;40484;50.198;19.576;2022-12-18T08:38:55;103549.34;;;0.09;51.69
54588;BME280;40484;50.198;19.576;2022-12-18T08:43:57;103551.60;;;0.26;50.92
54588;BME280;40484;50.198;19.576;2022-12-18T08:49:37;103561.26;;;0.12;50.71
54588;BME280;40484;50.198;19.576;2022-12-18T08:54:38;103569.74;;;0.44;50.40
54588;BME280;40484;50.198;19.576;2022-12-18T09:00:05;103584.03;;;0.42;50.15
54588;BME280;40484;50.198;19.576;2022-12-18T09:05:07;103586.42;;;0.63;50.01
54588;BME280;40484;50.198;19.576;2022-12-18T09:10:08;103586.31;;;0.76;49.65
54588;BME280;40484;50.198;19.576;2022-12-18T09:15:10;103588.28;;;1.10;49.06
54588;BME280;40484;50.198;19.576;2022-12-18T09:20:12;103595.66;;;0.93;48.65
54588;BME280;40484;50.198;19.576;2022-12-18T09:25:13;103588.05;;;0.82;48.62
54588;BME280;40484;50.198;19.576;2022-12-18T09:30:15;103596.70;;;0.95;48.78
54588;BME280;40484;50.198;19.576;2022-12-18T09:35:17;103600.00;;;0.90;48.60
54588;BME280;40484;50.198;19.576;2022-12-18T09:40:21;103600.52;;;1.34;47.95
54588;BME280;40484;50.198;19.576;2022-12-18T09:45:22;103598.63;;;1.31;47.89
54588;BME280;40484;50.198;19.576;2022-12-18T09:50:33;103595.13;;;1.01;47.76
54588;BME280;40484;50.198;19.576;2022-12-18T09:55:39;103602.05;;;1.20;47.93
54588;BME280;40484;50.198;19.576;2022-12-18T10:00:40;103600.80;;;1.68;47.68
54588;BME280;40484;50.198;19.576;2022-12-18T10:11:27;103613.99;;;1.67;46.69
54588;BME280;40484;50.198;19.576;2022-12-18T10:17:02;103617.10;;;1.17;47.32
54588;BME280;40484;50.198;19.576;2022-12-18T10:27:35;103601.58;;;0.97;47.97
54588;BME280;40484;50.198;19.576;2022-12-18T10:32:37;103601.52;;;0.82;48.19
54588;BME280;40484;50.198;19.576;2022-12-18T10:37:40;103599.48;;;1.39;48.13
54588;BME280;40484;50.198;19.576;2022-12-18T10:42:43;103594.60;;;1.96;47.70
54588;BME280;40484;50.198;19.576;2022-12-18T10:47:46;103591.84;;;2.21;46.87
54588;BME280;40484;50.198;19.576;2022-12-18T10:52:57;103591.99;;;2.15;45.91
54588;BME280;40484;50.198;19.576;2022-12-18T11:03:01;103577.54;;;1.95;45.74
54588;BME280;40484;50.198;19.576;2022-12-18T11:08:03;103576.45;;;2.16;45.74
54588;BME280;40484;50.198;19.576;2022-12-18T11:13:21;103561.51;;;2.27;45.07
54588;BME280;40484;50.198;19.576;2022-12-18T11:18:48;103572.85;;;2.25;45.39
54588;BME280;40484;50.198;19.576;2022-12-18T11:23:50;103559.92;;;2.27;45.38
54588;BME280;40484;50.198;19.576;2022-12-18T11:29:07;103559.70;;;2.43;45.26
54588;BME280;40484;50.198;19.576;2022-12-18T11:39:11;103560.09;;;2.16;44.80
54588;BME280;40484;50.198;19.576;2022-12-18T11:49:49;103559.31;;;2.71;44.49
54588;BME280;40484;50.198;19.576;2022-12-18T11:54:52;103560.31;;;2.98;44.21
54588;BME280;40484;50.198;19.576;2022-12-18T12:00:02;103559.38;;;3.10;43.73
54588;BME280;40484;50.198;19.576;2022-12-18T12:10:53;103568.38;;;2.28;44.01
54588;BME280;40484;50.198;19.576;2022-12-18T12:16:18;103566.45;;;2.11;44.67
54588;BME280;40484;50.198;19.576;2022-12-18T12:21:26;103572.48;;;2.44;44.64
54588;BME280;40484;50.198;19.576;2022-12-18T12:31:52;103584.34;;;2.33;44.37
54588;BME280;40484;50.198;19.576;2022-12-18T12:42:10;103596.05;;;1.93;45.26
54588;BME280;40484;50.198;19.576;2022-12-18T12:53:37;103605.54;;;1.86;45.09
54588;BME280;40484;50.198;19.576;2022-12-18T12:59:10;103604.82;;;1.75;45.31
54588;BME280;40484;50.198;19.576;2022-12-18T13:04:35;103610.84;;;1.78;45.04
54588;BME280;40484;50.198;19.576;2022-12-18T13:10:11;103621.59;;;2.00;44.60
54588;BME280;40484;50.198;19.576;2022-12-18T13:14:40;103622.61;;;2.07;44.16
54588;BME280;40484;50.198;19.576;2022-12-18T13:19:42;103612.09;;;2.15;43.89
54588;BME280;40484;50.198;19.576;2022-12-18T13:25:30;103619.30;;;2.05;42.83
54588;BME280;40484;50.198;19.576;2022-12-18T13:40:53;103629.77;;;1.51;42.57
54588;BME280;40484;50.198;19.576;2022-12-18T15:12:34;103680.03;;;-1.20;41.42
54588;BME280;40484;50.198;19.576;2022-12-18T15:17:36;103698.92;;;-1.38;41.37
54588;BME280;40484;50.198;19.576;2022-12-18T15:22:37;103705.23;;;-1.56;41.24
54588;BME280;40484;50.198;19.576;2022-12-18T15:27:40;103701.05;;;-1.59;41.09
54588;BME280;40484;50.198;19.576;2022-12-18T15:32:42;103707.96;;;-1.83;40.73
54588;BME280;40484;50.198;19.576;2022-12-18T15:37:44;103713.02;;;-1.96;40.69
54588;BME280;40484;50.198;19.576;2022-12-18T15:42:46;103704.63;;;-2.14;40.54
54588;BME280;40484;50.198;19.576;2022-12-18T15:48:27;103709.29;;;-2.39;40.60
54588;BME280;40484;50.198;19.576;2022-12-18T15:53:32;103708.33;;;-2.38;40.67
54588;BME280;40484;50.198;19.576;2022-12-18T15:59:00;103713.22;;;-2.51;40.30
54588;BME280;40484;50.198;19.576;2022-12-18T16:04:02;103721.05;;;-2.58;40.38
54588;BME280;40484;50.198;19.576;2022-12-18T16:09:04;103728.82;;;-2.62;40.29
54588;BME280;40484;50.198;19.576;2022-12-18T16:14:22;103730.77;;;-2.65;40.29
54588;BME280;40484;50.198;19.576;2022-12-18T16:19:25;103734.53;;;-2.82;40.27
54588;BME280;40484;50.198;19.576;2022-12-18T16:24:28;103733.70;;;-2.88;40.34
54588;BME280;40484;50.198;19.576;2022-12-18T16:29:30;103745.01;;;-2.93;40.20
54588;BME280;40484;50.198;19.576;2022-12-18T16:34:32;103753.53;;;-3.08;40.20
54588;BME280;40484;50.198;19.576;2022-12-18T16:39:37;103754.88;;;-3.10;40.30
54588;BME280;40484;50.198;19.576;2022-12-18T16:44:38;103756.12;;;-2.86;40.52
54588;BME280;40484;50.198;19.576;2022-12-18T16:49:39;103755.52;;;-2.74;40.64
54588;BME280;40484;50.198;19.576;2022-12-18T16:54:41;103769.35;;;-2.74;40.48
54588;BME280;40484;50.198;19.576;2022-12-18T16:59:43;103764.76;;;-2.75;40.31
54588;BME280;40484;50.198;19.576;2022-12-18T17:04:45;103751.21;;;-2.82;40.47
54588;BME280;40484;50.198;19.576;2022-12-18T17:09:47;103743.10;;;-2.68;41.41
54588;BME280;40484;50.198;19.576;2022-12-18T17:14:50;103741.14;;;-2.59;43.26
54588;BME280;40484;50.198;19.576;2022-12-18T17:19:52;103733.13;;;-2.53;43.90
54588;BME280;40484;50.198;19.576;2022-12-18T17:25:19;103720.90;;;-2.28;43.03
54588;BME280;40484;50.198;19.576;2022-12-18T17:30:21;103714.84;;;-2.24;43.19
54588;BME280;40484;50.198;19.576;2022-12-18T17:35:23;103704.70;;;-2.25;43.72
54588;BME280;40484;50.198;19.576;2022-12-18T17:40:24;103703.32;;;-2.23;44.16
54588;BME280;40484;50.198;19.576;2022-12-18T17:45:26;103696.55;;;-2.34;44.69
54588;BME280;40484;50.198;19.576;2022-12-18T17:50:28;103705.79;;;-2.52;45.57
54588;BME280;40484;50.198;19.576;2022-12-18T17:55:29;103708.20;;;-2.52;45.29
54588;BME280;40484;50.198;19.576;2022-12-18T18:00:31;103713.49;;;-2.44;44.28
54588;BME280;40484;50.198;19.576;2022-12-18T18:05:32;103720.79;;;-2.50;44.95
54588;BME280;40484;50.198;19.576;2022-12-18T18:10:38;103731.27;;;-2.45;44.95
54588;BME280;40484;50.198;19.576;2022-12-18T18:15:40;103734.20;;;-2.34;44.72
54588;BME280;40484;50.198;19.576;2022-12-18T18:20:42;103730.26;;;-2.30;44.72
54588;BME280;40484;50.198;19.576;2022-12-18T18:25:43;103730.66;;;-2.24;45.79
54588;BME280;40484;50.198;19.576;2022-12-18T18:30:46;103724.95;;;-2.07;46.07
54588;BME280;40484;50.198;19.576;2022-12-18T18:35:47;103727.77;;;-2.02;47.08
54588;BME280;40484;50.198;19.576;2022-12-18T18:40:56;103722.73;;;-1.89;47.22
54588;BME280;40484;50.198;19.576;2022-12-18T18:45:59;103720.20;;;-1.93;47.98
54588;BME280;40484;50.198;19.576;2022-12-18T18:51:04;103723.77;;;-1.95;48.97
54588;BME280;40484;50.198;19.576;2022-12-18T18:56:06;103721.79;;;-1.83;48.94
54588;BME280;40484;50.198;19.576;2022-12-18T19:01:32;103740.54;;;-1.62;48.77
54588;BME280;40484;50.198;19.576;2022-12-18T19:06:34;103746.78;;;-1.65;49.16
54588;BME280;40484;50.198;19.576;2022-12-18T19:11:35;103744.29;;;-1.42;48.66
54588;BME280;40484;50.198;19.576;2022-12-18T19:17:15;103748.29;;;-1.41;48.80
54588;BME280;40484;50.198;19.576;2022-12-18T19:22:17;103757.38;;;-1.44;48.94
54588;BME280;40484;50.198;19.576;2022-12-18T19:27:19;103761.72;;;-1.30;48.80
54588;BME280;40484;50.198;19.576;2022-12-18T19:32:21;103771.77;;;-1.08;48.51
54588;BME280;40484;50.198;19.576;2022-12-18T19:37:23;103770.94;;;-1.25;48.95
54588;BME280;40484;50.198;19.576;2022-12-18T19:42:26;103767.15;;;-1.01;48.51
54588;BME280;40484;50.198;19.576;2022-12-18T19:47:31;103773.48;;;-0.96;48.01
54588;BME280;40484;50.198;19.576;2022-12-18T19:52:33;103762.41;;;-1.14;47.76
54588;BME280;40484;50.198;19.576;2022-12-18T19:57:35;103768.15;;;-1.01;47.25
54588;BME280;40484;50.198;19.576;2022-12-18T20:02:38;103772.09;;;-0.94;46.79
54588;BME280;40484;50.198;19.576;2022-12-18T20:08:08;103771.18;;;-0.97;46.25
54588;BME280;40484;50.198;19.576;2022-12-18T20:13:11;103779.31;;;-1.10;46.25
54588;BME280;40484;50.198;19.576;2022-12-18T20:18:13;103785.13;;;-1.22;45.77
54588;BME280;40484;50.198;19.576;2022-12-18T20:23:16;103774.33;;;-1.29;46.02
54588;BME280;40484;50.198;19.576;2022-12-18T20:28:19;103753.30;;;-1.50;46.45
54588;BME280;40484;50.198;19.576;2022-12-18T20:33:23;103762.34;;;-1.56;46.35
54588;BME280;40484;50.198;19.576;2022-12-18T20:38:25;103756.96;;;-1.72;46.37
54588;BME280;40484;50.198;19.576;2022-12-18T20:43:28;103749.94;;;-1.89;47.03
54588;BME280;40484;50.198;19.576;2022-12-18T20:48:32;103756.47;;;-2.08;47.72
54588;BME280;40484;50.198;19.576;2022-12-18T20:53:35;103746.30;;;-2.04;47.45
54588;BME280;40484;50.198;19.576;2022-12-18T20:58:38;103747.78;;;-1.99;47.51
54588;BME280;40484;50.198;19.576;2022-12-18T21:03:41;103724.39;;;-1.99;47.49
54588;BME280;40484;50.198;19.576;2022-12-18T21:08:44;103718.37;;;-2.11;47.60
54588;BME280;40484;50.198;19.576;2022-12-18T21:13:45;103720.20;;;-2.19;47.93
54588;BME280;40484;50.198;19.576;2022-12-18T21:18:47;103708.45;;;-2.31;48.11
54588;BME280;40484;50.198;19.576;2022-12-18T21:23:48;103707.27;;;-2.32;48.02
54588;BME280;40484;50.198;19.576;2022-12-18T21:28:57;103698.79;;;-2.36;48.09
54588;BME280;40484;50.198;19.576;2022-12-18T21:33:59;103703.73;;;-2.39;47.93
54588;BME280;40484;50.198;19.576;2022-12-18T21:39:27;103702.23;;;-2.42;48.17
54588;BME280;40484;50.198;19.576;2022-12-18T21:44:29;103704.31;;;-2.46;48.46
54588;BME280;40484;50.198;19.576;2022-12-18T21:49:31;103710.48;;;-2.74;49.47
54588;BME280;40484;50.198;19.576;2022-12-18T21:54:33;103715.14;;;-2.62;49.35
54588;BME280;40484;50.198;19.576;2022-12-18T21:59:36;103713.94;;;-2.49;48.70
54588;BME280;40484;50.198;19.576;2022-12-18T22:04:38;103715.11;;;-2.39;48.41
54588;BME280;40484;50.198;19.576;2022-12-18T22:09:40;103718.09;;;-2.49;48.88
54588;BME280;40484;50.198;19.576;2022-12-18T22:14:41;103705.05;;;-2.67;49.12
54588;BME280;40484;50.198;19.576;2022-12-18T22:19:43;103705.95;;;-2.58;49.05
54588;BME280;40484;50.198;19.576;2022-12-18T22:24:44;103708.90;;;-2.45;48.86
54588;BME280;40484;50.198;19.576;2022-12-18T22:29:46;103708.77;;;-2.36;48.49
54588;BME280;40484;50.198;19.576;2022-12-18T22:35:06;103706.99;;;-2.39;48.30
54588;BME280;40484;50.198;19.576;2022-12-18T22:40:10;103709.11;;;-2.35;48.04
54588;BME280;40484;50.198;19.576;2022-12-18T22:45:11;103698.48;;;-2.45;47.73
54588;BME280;40484;50.198;19.576;2022-12-18T22:50:13;103706.66;;;-2.57;47.96
54588;BME280;40484;50.198;19.576;2022-12-18T22:55:15;103705.53;;;-2.79;48.63
54588;BME280;40484;50.198;19.576;2022-12-18T23:00:16;103702.04;;;-2.69;48.22
54588;BME280;40484;50.198;19.576;2022-12-18T23:05:45;103700.94;;;-2.60;47.76
54588;BME280;40484;50.198;19.576;2022-12-18T23:10:51;103697.23;;;-2.74;48.06
54588;BME280;40484;50.198;19.576;2022-12-18T23:15:51;103692.92;;;-2.60;47.74
54588;BME280;40484;50.198;19.576;2022-12-18T23:20:52;103702.36;;;-2.28;47.27
54588;BME280;40484;50.198;19.576;2022-12-18T23:26:11;103702.02;;;-2.07;46.51
54588;BME280;40484;50.198;19.576;2022-12-18T23:31:17;103700.33;;;-1.88;46.27
54588;BME280;40484;50.198;19.576;2022-12-18T23:36:19;103701.86;;;-1.89;45.70
54588;BME280;40484;50.198;19.576;2022-12-18T23:41:22;103699.87;;;-2.16;44.05
54588;BME280;40484;50.198;19.576;2022-12-18T23:46:29;103695.27;;;-2.34;44.27
54588;BME280;40484;50.198;19.576;2022-12-18T23:51:31;103690.17;;;-2.55;44.37
54588;BME280;40484;50.198;19.576;2022-12-18T23:56:33;103683.74;;;-2.48;44.50
